sensor_id;sensor_type;location;lat;lon;timestamp;P1;durP1;ratioP1;P2;durP2;ratioP2
1993;SDS011;998;49.906;10.908;2023-07-02T00:02:20;82.90;;;75.83;;
1993;SDS011;998;49.906;10.908;2023-07-02T00:04:47;81.73;;;75.00;;
1993;SDS011;998;49.906;10.908;2023-07-02T00:07:15;78.00;;;71.40;;
1993;SDS011;998;49.906;10.908;2023-07-02T00:09:42;88.00;;;80.70;;
1993;SDS011;998;49.906;10.908;2023-07-02T00:12:10;75.03;;;68.93;;
1993;SDS011;998;49.906;10.908;2023-07-02T00:14:39;83.83;;;76.93;;
1993;SDS011;998;49.906;10.908;2023-07-02T00:17:06;82.23;;;75.60;;
1993;SDS011;998;49.906;10.908;2023-07-02T00:19:33;80.87;;;74.30;;
1993;SDS011;998;49.906;10.908;2023-07-02T00:22:01;81.13;;;74.30;;
1993;SDS011;998;49.906;10.908;2023-07-02T00:24:29;77.93;;;71.53;;
1993;SDS011;998;49.906;10.908;2023-07-02T00:26:56;82.77;;;75.87;;
1993;SDS011;998;49.906;10.908;2023-07-02T00:29:24;77.60;;;71.27;;
1993;SDS011;998;49.906;10.908;2023-07-02T00:31:53;84.70;;;77.37;;
1993;SDS011;998;49.906;10.908;2023-07-02T00:34:20;82.60;;;75.70;;
1993;SDS011;998;49.906;10.908;2023-07-02T00:36:47;89.53;;;82.03;;
1993;SDS011;998;49.906;10.908;2023-07-02T00:39:15;88.37;;;80.93;;
1993;SDS011;998;49.906;10.908;2023-07-02T00:41:43;90.00;;;82.60;;
1993;SDS011;998;49.906;10.908;2023-07-02T00:44:11;91.37;;;83.83;;
1993;SDS011;998;49.906;10.908;2023-07-02T00:46:39;93.20;;;85.40;;
1993;SDS011;998;49.906;10.908;2023-07-02T00:49:09;83.40;;;76.60;;
1993;SDS011;998;49.906;10.908;2023-07-02T00:51:38;92.63;;;84.57;;
1993;SDS011;998;49.906;10.908;2023-07-02T00:54:06;111.87;;;102.43;;
1993;SDS011;998;49.906;10.908;2023-07-02T00:56:33;83.63;;;76.70;;
1993;SDS011;998;49.906;10.908;2023-07-02T00:59:00;83.30;;;76.40;;
1993;SDS011;998;49.906;10.908;2023-07-02T01:01:28;90.37;;;82.80;;
1993;SDS011;998;49.906;10.908;2023-07-02T01:03:59;84.63;;;77.40;;
1993;SDS011;998;49.906;10.908;2023-07-02T01:06:30;80.27;;;73.67;;
1993;SDS011;998;49.906;10.908;2023-07-02T01:09:00;84.90;;;77.70;;
1993;SDS011;998;49.906;10.908;2023-07-02T01:11:29;79.53;;;72.73;;
1993;SDS011;998;49.906;10.908;2023-07-02T01:13:59;84.00;;;76.57;;
1993;SDS011;998;49.906;10.908;2023-07-02T01:16:29;77.10;;;70.83;;
1993;SDS011;998;49.906;10.908;2023-07-02T01:18:58;85.17;;;78.00;;
1993;SDS011;998;49.906;10.908;2023-07-02T01:21:31;76.40;;;69.80;;
1993;SDS011;998;49.906;10.908;2023-07-02T01:23:59;85.47;;;78.17;;
1993;SDS011;998;49.906;10.908;2023-07-02T01:26:28;78.43;;;71.70;;
1993;SDS011;998;49.906;10.908;2023-07-02T01:28:59;89.50;;;81.40;;
1993;SDS011;998;49.906;10.908;2023-07-02T01:31:27;79.37;;;72.60;;
1993;SDS011;998;49.906;10.908;2023-07-02T01:33:54;85.60;;;78.03;;
1993;SDS011;998;49.906;10.908;2023-07-02T01:36:21;87.23;;;79.53;;
1993;SDS011;998;49.906;10.908;2023-07-02T01:38:50;88.60;;;80.87;;
1993;SDS011;998;49.906;10.908;2023-07-02T01:41:18;95.73;;;87.40;;
1993;SDS011;998;49.906;10.908;2023-07-02T01:43:46;92.63;;;84.43;;
1993;SDS011;998;49.906;10.908;2023-07-02T01:46:14;87.30;;;79.27;;
1993;SDS011;998;49.906;10.908;2023-07-02T01:48:41;87.73;;;79.80;;
1993;SDS011;998;49.906;10.908;2023-07-02T01:51:09;89.10;;;81.40;;
1993;SDS011;998;49.906;10.908;2023-07-02T01:53:36;82.87;;;75.70;;
1993;SDS011;998;49.906;10.908;2023-07-02T01:56:05;90.23;;;82.47;;
1993;SDS011;998;49.906;10.908;2023-07-02T01:58:32;79.07;;;72.03;;
1993;SDS011;998;49.906;10.908;2023-07-02T02:01:00;91.97;;;84.03;;
1993;SDS011;998;49.906;10.908;2023-07-02T02:03:27;92.67;;;84.37;;
1993;SDS011;998;49.906;10.908;2023-07-02T02:05:54;86.07;;;78.77;;
1993;SDS011;998;49.906;10.908;2023-07-02T02:08:21;81.63;;;74.30;;
1993;SDS011;998;49.906;10.908;2023-07-02T02:10:48;90.77;;;82.97;;
1993;SDS011;998;49.906;10.908;2023-07-02T02:13:17;74.03;;;67.73;;
1993;SDS011;998;49.906;10.908;2023-07-02T02:15:44;78.23;;;71.50;;
1993;SDS011;998;49.906;10.908;2023-07-02T02:18:12;75.53;;;68.83;;
1993;SDS011;998;49.906;10.908;2023-07-02T02:20:39;86.00;;;78.13;;
1993;SDS011;998;49.906;10.908;2023-07-02T02:23:07;82.50;;;75.17;;
1993;SDS011;998;49.906;10.908;2023-07-02T02:25:34;78.67;;;71.93;;
1993;SDS011;998;49.906;10.908;2023-07-02T02:28:02;82.80;;;75.60;;
1993;SDS011;998;49.906;10.908;2023-07-02T02:30:31;86.23;;;78.53;;
1993;SDS011;998;49.906;10.908;2023-07-02T02:32:58;78.83;;;71.80;;
1993;SDS011;998;49.906;10.908;2023-07-02T02:35:25;86.33;;;78.60;;
1993;SDS011;998;49.906;10.908;2023-07-02T02:37:53;79.30;;;72.30;;
1993;SDS011;998;49.906;10.908;2023-07-02T02:40:20;86.50;;;78.70;;
1993;SDS011;998;49.906;10.908;2023-07-02T02:42:47;73.73;;;67.20;;
1993;SDS011;998;49.906;10.908;2023-07-02T02:45:15;77.70;;;70.87;;
1993;SDS011;998;49.906;10.908;2023-07-02T02:47:44;79.30;;;72.17;;
1993;SDS011;998;49.906;10.908;2023-07-02T02:50:12;83.93;;;76.53;;
1993;SDS011;998;49.906;10.908;2023-07-02T02:52:40;84.83;;;77.23;;
1993;SDS011;998;49.906;10.908;2023-07-02T02:55:08;84.47;;;76.87;;
1993;SDS011;998;49.906;10.908;2023-07-02T02:57:37;84.77;;;77.27;;
1993;SDS011;998;49.906;10.908;2023-07-02T03:00:05;77.90;;;71.00;;
1993;SDS011;998;49.906;10.908;2023-07-02T03:02:34;86.90;;;79.07;;
1993;SDS011;998;49.906;10.908;2023-07-02T03:05:03;78.90;;;71.63;;
1993;SDS011;998;49.906;10.908;2023-07-02T03:07:31;78.07;;;71.00;;
1993;SDS011;998;49.906;10.908;2023-07-02T03:10:00;80.63;;;73.53;;
1993;SDS011;998;49.906;10.908;2023-07-02T03:12:28;82.53;;;75.10;;
1993;SDS011;998;49.906;10.908;2023-07-02T03:14:55;83.97;;;76.70;;
1993;SDS011;998;49.906;10.908;2023-07-02T03:17:22;84.53;;;76.83;;
1993;SDS011;998;49.906;10.908;2023-07-02T03:19:50;79.40;;;72.20;;
1993;SDS011;998;49.906;10.908;2023-07-02T03:22:19;76.53;;;69.43;;
1993;SDS011;998;49.906;10.908;2023-07-02T03:24:46;79.50;;;72.17;;
1993;SDS011;998;49.906;10.908;2023-07-02T03:27:14;81.87;;;74.57;;
1993;SDS011;998;49.906;10.908;2023-07-02T03:29:41;87.67;;;79.80;;
1993;SDS011;998;49.906;10.908;2023-07-02T03:32:08;85.47;;;77.90;;
1993;SDS011;998;49.906;10.908;2023-07-02T03:34:36;81.33;;;74.27;;
1993;SDS011;998;49.906;10.908;2023-07-02T03:37:04;80.87;;;73.67;;
1993;SDS011;998;49.906;10.908;2023-07-02T03:39:33;89.73;;;81.70;;
1993;SDS011;998;49.906;10.908;2023-07-02T03:42:01;81.97;;;74.67;;
1993;SDS011;998;49.906;10.908;2023-07-02T03:44:28;90.73;;;82.73;;
1993;SDS011;998;49.906;10.908;2023-07-02T03:46:55;89.83;;;82.33;;
1993;SDS011;998;49.906;10.908;2023-07-02T03:49:23;84.60;;;77.77;;
1993;SDS011;998;49.906;10.908;2023-07-02T03:51:50;89.30;;;81.83;;
1993;SDS011;998;49.906;10.908;2023-07-02T03:54:17;94.40;;;86.53;;
1993;SDS011;998;49.906;10.908;2023-07-02T03:56:46;96.30;;;88.43;;
1993;SDS011;998;49.906;10.908;2023-07-02T03:59:14;98.40;;;90.00;;
1993;SDS011;998;49.906;10.908;2023-07-02T04:01:41;87.07;;;79.90;;
1993;SDS011;998;49.906;10.908;2023-07-02T04:04:09;94.23;;;85.77;;
1993;SDS011;998;49.906;10.908;2023-07-02T04:06:36;101.83;;;92.40;;
1993;SDS011;998;49.906;10.908;2023-07-02T04:09:04;97.83;;;88.83;;
1993;SDS011;998;49.906;10.908;2023-07-02T04:11:31;94.87;;;86.50;;
1993;SDS011;998;49.906;10.908;2023-07-02T04:14:00;98.10;;;89.37;;
1993;SDS011;998;49.906;10.908;2023-07-02T04:16:28;93.37;;;85.00;;
1993;SDS011;998;49.906;10.908;2023-07-02T04:18:55;93.00;;;84.53;;
1993;SDS011;998;49.906;10.908;2023-07-02T04:21:22;98.93;;;90.10;;
1993;SDS011;998;49.906;10.908;2023-07-02T04:23:50;91.53;;;83.10;;
1993;SDS011;998;49.906;10.908;2023-07-02T04:26:17;94.23;;;85.07;;
1993;SDS011;998;49.906;10.908;2023-07-02T04:28:45;99.30;;;90.10;;
1993;SDS011;998;49.906;10.908;2023-07-02T04:31:13;94.33;;;85.53;;
1993;SDS011;998;49.906;10.908;2023-07-02T04:33:41;92.73;;;84.67;;
1993;SDS011;998;49.906;10.908;2023-07-02T04:36:08;96.60;;;87.33;;
1993;SDS011;998;49.906;10.908;2023-07-02T04:38:35;87.77;;;79.87;;
1993;SDS011;998;49.906;10.908;2023-07-02T04:41:04;94.47;;;85.83;;
1993;SDS011;998;49.906;10.908;2023-07-02T04:43:32;86.90;;;79.13;;
1993;SDS011;998;49.906;10.908;2023-07-02T04:45:59;100.53;;;90.77;;
1993;SDS011;998;49.906;10.908;2023-07-02T04:48:28;90.87;;;82.17;;
1993;SDS011;998;49.906;10.908;2023-07-02T04:50:56;86.90;;;78.10;;
1993;SDS011;998;49.906;10.908;2023-07-02T04:53:23;84.70;;;76.27;;
1993;SDS011;998;49.906;10.908;2023-07-02T04:55:51;86.77;;;77.50;;
1993;SDS011;998;49.906;10.908;2023-07-02T04:58:18;85.97;;;77.50;;
1993;SDS011;998;49.906;10.908;2023-07-02T05:00:46;89.13;;;80.60;;
1993;SDS011;998;49.906;10.908;2023-07-02T05:03:14;93.40;;;83.70;;
1993;SDS011;998;49.906;10.908;2023-07-02T05:05:42;91.23;;;81.90;;
1993;SDS011;998;49.906;10.908;2023-07-02T05:08:10;87.83;;;78.33;;
1993;SDS011;998;49.906;10.908;2023-07-02T05:10:37;96.50;;;87.33;;
1993;SDS011;998;49.906;10.908;2023-07-02T05:13:04;85.57;;;77.33;;
1993;SDS011;998;49.906;10.908;2023-07-02T05:15:32;85.07;;;77.00;;
1993;SDS011;998;49.906;10.908;2023-07-02T05:17:59;89.03;;;80.53;;
1993;SDS011;998;49.906;10.908;2023-07-02T05:20:27;97.83;;;88.63;;
1993;SDS011;998;49.906;10.908;2023-07-02T05:22:55;94.60;;;85.57;;
1993;SDS011;998;49.906;10.908;2023-07-02T05:25:23;95.23;;;86.43;;
1993;SDS011;998;49.906;10.908;2023-07-02T05:27:50;79.47;;;71.73;;
1993;SDS011;998;49.906;10.908;2023-07-02T05:30:17;84.33;;;75.67;;
1993;SDS011;998;49.906;10.908;2023-07-02T05:32:45;83.23;;;74.97;;
1993;SDS011;998;49.906;10.908;2023-07-02T05:35:12;84.63;;;76.33;;
1993;SDS011;998;49.906;10.908;2023-07-02T05:37:40;78.50;;;71.00;;
1993;SDS011;998;49.906;10.908;2023-07-02T05:40:09;83.00;;;74.40;;
1993;SDS011;998;49.906;10.908;2023-07-02T05:42:37;83.93;;;75.53;;
1993;SDS011;998;49.906;10.908;2023-07-02T05:45:05;83.70;;;75.47;;
1993;SDS011;998;49.906;10.908;2023-07-02T05:47:32;88.33;;;79.93;;
1993;SDS011;998;49.906;10.908;2023-07-02T05:49:59;84.17;;;76.03;;
1993;SDS011;998;49.906;10.908;2023-07-02T05:52:27;84.57;;;76.37;;
1993;SDS011;998;49.906;10.908;2023-07-02T05:54:54;82.03;;;74.03;;
1993;SDS011;998;49.906;10.908;2023-07-02T05:57:23;83.30;;;74.77;;
1993;SDS011;998;49.906;10.908;2023-07-02T05:59:50;86.77;;;78.47;;
1993;SDS011;998;49.906;10.908;2023-07-02T06:02:17;85.03;;;76.47;;
1993;SDS011;998;49.906;10.908;2023-07-02T06:04:45;82.87;;;74.63;;
1993;SDS011;998;49.906;10.908;2023-07-02T06:07:12;82.77;;;74.87;;
1993;SDS011;998;49.906;10.908;2023-07-02T06:09:40;79.77;;;72.27;;
1993;SDS011;998;49.906;10.908;2023-07-02T06:12:07;73.53;;;66.50;;
1993;SDS011;998;49.906;10.908;2023-07-02T06:14:36;103.30;;;86.47;;
1993;SDS011;998;49.906;10.908;2023-07-02T06:17:04;138.77;;;101.70;;
1993;SDS011;998;49.906;10.908;2023-07-02T06:19:32;118.23;;;93.00;;
1993;SDS011;998;49.906;10.908;2023-07-02T06:22:00;121.50;;;95.87;;
1993;SDS011;998;49.906;10.908;2023-07-02T06:24:27;120.30;;;94.97;;
1993;SDS011;998;49.906;10.908;2023-07-02T06:26:55;131.60;;;95.23;;
1993;SDS011;998;49.906;10.908;2023-07-02T06:29:22;129.70;;;96.53;;
1993;SDS011;998;49.906;10.908;2023-07-02T06:31:51;147.87;;;100.00;;
1993;SDS011;998;49.906;10.908;2023-07-02T06:34:19;132.30;;;105.97;;
1993;SDS011;998;49.906;10.908;2023-07-02T06:36:46;120.00;;;95.20;;
1993;SDS011;998;49.906;10.908;2023-07-02T06:39:14;114.43;;;96.40;;
1993;SDS011;998;49.906;10.908;2023-07-02T06:41:41;117.30;;;93.40;;
1993;SDS011;998;49.906;10.908;2023-07-02T06:44:09;122.33;;;96.13;;
1993;SDS011;998;49.906;10.908;2023-07-02T06:46:36;121.43;;;97.90;;
1993;SDS011;998;49.906;10.908;2023-07-02T06:49:05;130.37;;;97.63;;
1993;SDS011;998;49.906;10.908;2023-07-02T06:51:33;114.53;;;95.60;;
1993;SDS011;998;49.906;10.908;2023-07-02T06:54:01;114.83;;;96.83;;
1993;SDS011;998;49.906;10.908;2023-07-02T06:56:28;109.97;;;92.00;;
1993;SDS011;998;49.906;10.908;2023-07-02T06:58:57;115.80;;;96.00;;
1993;SDS011;998;49.906;10.908;2023-07-02T07:01:25;104.53;;;92.90;;
1993;SDS011;998;49.906;10.908;2023-07-02T07:03:52;96.97;;;84.67;;
1993;SDS011;998;49.906;10.908;2023-07-02T07:06:21;97.53;;;86.93;;
1993;SDS011;998;49.906;10.908;2023-07-02T07:08:48;99.43;;;88.57;;
1993;SDS011;998;49.906;10.908;2023-07-02T07:11:16;102.90;;;91.10;;
1993;SDS011;998;49.906;10.908;2023-07-02T07:13:43;97.40;;;87.07;;
1993;SDS011;998;49.906;10.908;2023-07-02T07:16:11;98.10;;;88.00;;
1993;SDS011;998;49.906;10.908;2023-07-02T07:18:38;93.87;;;84.00;;
1993;SDS011;998;49.906;10.908;2023-07-02T07:21:05;88.00;;;79.20;;
1993;SDS011;998;49.906;10.908;2023-07-02T07:23:34;95.50;;;85.50;;
1993;SDS011;998;49.906;10.908;2023-07-02T07:26:02;87.30;;;78.47;;
1993;SDS011;998;49.906;10.908;2023-07-02T07:28:29;95.70;;;86.10;;
1993;SDS011;998;49.906;10.908;2023-07-02T07:30:56;98.77;;;88.70;;
1993;SDS011;998;49.906;10.908;2023-07-02T07:33:24;101.47;;;90.47;;
1993;SDS011;998;49.906;10.908;2023-07-02T07:35:51;100.20;;;89.90;;
1993;SDS011;998;49.906;10.908;2023-07-02T07:38:19;85.50;;;77.00;;
1993;SDS011;998;49.906;10.908;2023-07-02T07:40:47;99.87;;;89.50;;
1993;SDS011;998;49.906;10.908;2023-07-02T07:43:14;99.47;;;89.17;;
1993;SDS011;998;49.906;10.908;2023-07-02T07:45:41;98.43;;;88.30;;
1993;SDS011;998;49.906;10.908;2023-07-02T07:48:09;107.37;;;96.47;;
1993;SDS011;998;49.906;10.908;2023-07-02T07:50:36;98.37;;;88.60;;
1993;SDS011;998;49.906;10.908;2023-07-02T07:53:03;95.33;;;85.93;;
1993;SDS011;998;49.906;10.908;2023-07-02T07:55:30;95.60;;;86.00;;
1993;SDS011;998;49.906;10.908;2023-07-02T07:57:59;101.50;;;91.70;;
1993;SDS011;998;49.906;10.908;2023-07-02T08:00:26;98.83;;;89.03;;
1993;SDS011;998;49.906;10.908;2023-07-02T08:02:53;101.90;;;91.00;;
1993;SDS011;998;49.906;10.908;2023-07-02T08:05:21;98.50;;;88.57;;
1993;SDS011;998;49.906;10.908;2023-07-02T08:07:49;94.87;;;84.77;;
1993;SDS011;998;49.906;10.908;2023-07-02T08:10:18;99.07;;;89.07;;
1993;SDS011;998;49.906;10.908;2023-07-02T08:12:46;90.67;;;80.80;;
1993;SDS011;998;49.906;10.908;2023-07-02T08:15:15;95.80;;;86.20;;
1993;SDS011;998;49.906;10.908;2023-07-02T08:17:43;96.80;;;86.60;;
1993;SDS011;998;49.906;10.908;2023-07-02T08:20:10;94.47;;;85.07;;
1993;SDS011;998;49.906;10.908;2023-07-02T08:22:38;100.70;;;90.93;;
1993;SDS011;998;49.906;10.908;2023-07-02T08:25:06;91.30;;;82.17;;
1993;SDS011;998;49.906;10.908;2023-07-02T08:27:34;104.60;;;94.53;;
1993;SDS011;998;49.906;10.908;2023-07-02T08:30:02;115.80;;;104.80;;
1993;SDS011;998;49.906;10.908;2023-07-02T08:32:31;100.93;;;91.00;;
1993;SDS011;998;49.906;10.908;2023-07-02T08:34:58;106.37;;;96.43;;
1993;SDS011;998;49.906;10.908;2023-07-02T08:37:26;109.40;;;98.40;;
1993;SDS011;998;49.906;10.908;2023-07-02T08:39:53;110.37;;;99.73;;
1993;SDS011;998;49.906;10.908;2023-07-02T08:42:20;101.50;;;91.40;;
1993;SDS011;998;49.906;10.908;2023-07-02T08:44:48;107.50;;;96.80;;
1993;SDS011;998;49.906;10.908;2023-07-02T08:47:20;101.80;;;91.73;;
1993;SDS011;998;49.906;10.908;2023-07-02T08:49:50;95.03;;;85.90;;
1993;SDS011;998;49.906;10.908;2023-07-02T08:52:17;89.33;;;80.93;;
1993;SDS011;998;49.906;10.908;2023-07-02T08:54:45;96.00;;;87.17;;
1993;SDS011;998;49.906;10.908;2023-07-02T08:57:12;93.60;;;84.80;;
1993;SDS011;998;49.906;10.908;2023-07-02T08:59:40;91.97;;;83.27;;
1993;SDS011;998;49.906;10.908;2023-07-02T09:02:07;99.20;;;89.23;;
1993;SDS011;998;49.906;10.908;2023-07-02T09:04:34;96.43;;;87.43;;
1993;SDS011;998;49.906;10.908;2023-07-02T09:07:07;92.40;;;84.27;;
1993;SDS011;998;49.906;10.908;2023-07-02T09:09:44;97.13;;;88.43;;
1993;SDS011;998;49.906;10.908;2023-07-02T09:12:21;98.67;;;89.77;;
1993;SDS011;998;49.906;10.908;2023-07-02T09:14:59;102.13;;;92.83;;
1993;SDS011;998;49.906;10.908;2023-07-02T09:17:29;96.00;;;87.30;;
1993;SDS011;998;49.906;10.908;2023-07-02T09:19:57;102.30;;;93.17;;
1993;SDS011;998;49.906;10.908;2023-07-02T09:22:28;104.23;;;94.73;;
1993;SDS011;998;49.906;10.908;2023-07-02T09:24:56;105.63;;;95.90;;
1993;SDS011;998;49.906;10.908;2023-07-02T09:27:34;108.93;;;99.50;;
1993;SDS011;998;49.906;10.908;2023-07-02T09:30:07;102.83;;;93.67;;
1993;SDS011;998;49.906;10.908;2023-07-02T09:32:35;100.03;;;90.73;;
1993;SDS011;998;49.906;10.908;2023-07-02T09:35:03;96.20;;;87.90;;
1993;SDS011;998;49.906;10.908;2023-07-02T09:37:32;109.50;;;99.67;;
1993;SDS011;998;49.906;10.908;2023-07-02T09:40:00;101.13;;;93.03;;
1993;SDS011;998;49.906;10.908;2023-07-02T09:42:30;110.53;;;101.73;;
1993;SDS011;998;49.906;10.908;2023-07-02T09:44:58;99.87;;;91.33;;
1993;SDS011;998;49.906;10.908;2023-07-02T09:47:27;112.80;;;104.00;;
1993;SDS011;998;49.906;10.908;2023-07-02T09:49:57;102.87;;;95.07;;
1993;SDS011;998;49.906;10.908;2023-07-02T09:52:33;104.40;;;95.87;;
1993;SDS011;998;49.906;10.908;2023-07-02T09:55:01;103.70;;;95.33;;
1993;SDS011;998;49.906;10.908;2023-07-02T09:57:30;110.97;;;101.70;;
1993;SDS011;998;49.906;10.908;2023-07-02T09:59:58;103.90;;;95.40;;
1993;SDS011;998;49.906;10.908;2023-07-02T10:02:26;112.03;;;103.33;;
1993;SDS011;998;49.906;10.908;2023-07-02T10:04:53;102.07;;;94.43;;
1993;SDS011;998;49.906;10.908;2023-07-02T10:07:28;106.83;;;98.70;;
1993;SDS011;998;49.906;10.908;2023-07-02T10:09:58;107.27;;;98.73;;
1993;SDS011;998;49.906;10.908;2023-07-02T10:12:27;92.60;;;85.30;;
1993;SDS011;998;49.906;10.908;2023-07-02T10:14:55;104.33;;;95.97;;
1993;SDS011;998;49.906;10.908;2023-07-02T10:17:26;95.43;;;87.83;;
1993;SDS011;998;49.906;10.908;2023-07-02T10:19:56;99.13;;;91.33;;
1993;SDS011;998;49.906;10.908;2023-07-02T10:22:24;92.73;;;85.70;;
1993;SDS011;998;49.906;10.908;2023-07-02T10:24:53;91.50;;;83.90;;
1993;SDS011;998;49.906;10.908;2023-07-02T10:27:33;90.23;;;83.30;;
1993;SDS011;998;49.906;10.908;2023-07-02T10:30:02;97.67;;;89.97;;
1993;SDS011;998;49.906;10.908;2023-07-02T10:32:30;101.67;;;93.33;;
1993;SDS011;998;49.906;10.908;2023-07-02T10:34:59;98.23;;;90.70;;
1993;SDS011;998;49.906;10.908;2023-07-02T10:37:34;92.57;;;85.47;;
1993;SDS011;998;49.906;10.908;2023-07-02T10:40:03;96.33;;;88.50;;
1993;SDS011;998;49.906;10.908;2023-07-02T10:42:45;94.03;;;86.80;;
1993;SDS011;998;49.906;10.908;2023-07-02T10:45:13;94.57;;;86.83;;
1993;SDS011;998;49.906;10.908;2023-07-02T10:47:41;91.03;;;83.60;;
1993;SDS011;998;49.906;10.908;2023-07-02T10:50:15;99.10;;;91.13;;
1993;SDS011;998;49.906;10.908;2023-07-02T10:52:43;94.30;;;86.70;;
1993;SDS011;998;49.906;10.908;2023-07-02T10:55:15;93.70;;;86.40;;
1993;SDS011;998;49.906;10.908;2023-07-02T10:57:45;99.57;;;92.20;;
1993;SDS011;998;49.906;10.908;2023-07-02T11:00:12;101.90;;;94.00;;
1993;SDS011;998;49.906;10.908;2023-07-02T11:02:40;99.10;;;92.20;;
1993;SDS011;998;49.906;10.908;2023-07-02T11:05:07;113.13;;;104.53;;
1993;SDS011;998;49.906;10.908;2023-07-02T11:07:37;105.37;;;96.97;;
1993;SDS011;998;49.906;10.908;2023-07-02T11:10:05;94.03;;;86.70;;
1993;SDS011;998;49.906;10.908;2023-07-02T11:12:33;88.57;;;81.20;;
1993;SDS011;998;49.906;10.908;2023-07-02T11:15:09;85.30;;;78.10;;
1993;SDS011;998;49.906;10.908;2023-07-02T11:17:37;90.73;;;83.23;;
1993;SDS011;998;49.906;10.908;2023-07-02T11:20:07;77.97;;;71.67;;
1993;SDS011;998;49.906;10.908;2023-07-02T11:22:35;95.30;;;87.50;;
1993;SDS011;998;49.906;10.908;2023-07-02T11:25:10;79.07;;;72.97;;
1993;SDS011;998;49.906;10.908;2023-07-02T11:27:41;91.50;;;84.30;;
1993;SDS011;998;49.906;10.908;2023-07-02T11:30:11;83.50;;;77.27;;
1993;SDS011;998;49.906;10.908;2023-07-02T11:32:49;89.60;;;82.80;;
1993;SDS011;998;49.906;10.908;2023-07-02T11:35:17;90.37;;;83.50;;
1993;SDS011;998;49.906;10.908;2023-07-02T11:37:44;83.17;;;76.40;;
1993;SDS011;998;49.906;10.908;2023-07-02T11:40:11;83.63;;;77.20;;
1993;SDS011;998;49.906;10.908;2023-07-02T11:42:40;86.00;;;79.20;;
1993;SDS011;998;49.906;10.908;2023-07-02T11:45:10;82.47;;;76.27;;
1993;SDS011;998;49.906;10.908;2023-07-02T11:47:38;91.93;;;84.70;;
1993;SDS011;998;49.906;10.908;2023-07-02T11:50:05;87.77;;;81.13;;
1993;SDS011;998;49.906;10.908;2023-07-02T11:52:33;83.07;;;76.63;;
1993;SDS011;998;49.906;10.908;2023-07-02T11:55:00;91.30;;;84.17;;
1993;SDS011;998;49.906;10.908;2023-07-02T11:57:28;84.00;;;78.10;;
1993;SDS011;998;49.906;10.908;2023-07-02T11:59:55;115.47;;;106.93;;
1993;SDS011;998;49.906;10.908;2023-07-02T12:02:23;89.27;;;82.87;;
1993;SDS011;998;49.906;10.908;2023-07-02T12:04:51;94.97;;;87.97;;
1993;SDS011;998;49.906;10.908;2023-07-02T12:07:18;78.97;;;73.23;;
1993;SDS011;998;49.906;10.908;2023-07-02T12:09:45;100.47;;;93.43;;
1993;SDS011;998;49.906;10.908;2023-07-02T12:12:13;86.90;;;80.93;;
1993;SDS011;998;49.906;10.908;2023-07-02T12:14:41;90.90;;;84.67;;
1993;SDS011;998;49.906;10.908;2023-07-02T12:17:08;83.27;;;77.03;;
1993;SDS011;998;49.906;10.908;2023-07-02T12:19:39;102.07;;;95.13;;
1993;SDS011;998;49.906;10.908;2023-07-02T12:22:06;76.63;;;71.43;;
1993;SDS011;998;49.906;10.908;2023-07-02T12:24:34;94.97;;;88.50;;
1993;SDS011;998;49.906;10.908;2023-07-02T12:27:02;100.73;;;93.80;;
1993;SDS011;998;49.906;10.908;2023-07-02T12:29:29;95.47;;;89.00;;
1993;SDS011;998;49.906;10.908;2023-07-02T12:31:57;96.57;;;89.67;;
1993;SDS011;998;49.906;10.908;2023-07-02T12:34:24;83.30;;;77.50;;
1993;SDS011;998;49.906;10.908;2023-07-02T12:36:53;100.70;;;93.70;;
1993;SDS011;998;49.906;10.908;2023-07-02T12:39:20;89.63;;;83.23;;
1993;SDS011;998;49.906;10.908;2023-07-02T12:41:48;101.47;;;94.53;;
1993;SDS011;998;49.906;10.908;2023-07-02T12:44:15;83.23;;;77.43;;
1993;SDS011;998;49.906;10.908;2023-07-02T12:46:43;93.63;;;87.53;;
1993;SDS011;998;49.906;10.908;2023-07-02T12:49:10;94.73;;;88.60;;
1993;SDS011;998;49.906;10.908;2023-07-02T12:51:38;98.30;;;92.00;;
1993;SDS011;998;49.906;10.908;2023-07-02T12:54:07;98.07;;;91.63;;
1993;SDS011;998;49.906;10.908;2023-07-02T12:56:34;82.23;;;76.73;;
1993;SDS011;998;49.906;10.908;2023-07-02T12:59:01;90.17;;;84.23;;
1993;SDS011;998;49.906;10.908;2023-07-02T13:01:29;91.70;;;85.50;;
1993;SDS011;998;49.906;10.908;2023-07-02T13:03:56;97.13;;;90.93;;
1993;SDS011;998;49.906;10.908;2023-07-02T13:06:24;88.03;;;82.03;;
1993;SDS011;998;49.906;10.908;2023-07-02T13:08:52;98.37;;;91.57;;
1993;SDS011;998;49.906;10.908;2023-07-02T13:11:22;107.70;;;100.37;;
1993;SDS011;998;49.906;10.908;2023-07-02T13:13:49;103.20;;;96.13;;
1993;SDS011;998;49.906;10.908;2023-07-02T13:16:17;88.40;;;82.30;;
1993;SDS011;998;49.906;10.908;2023-07-02T13:18:44;103.93;;;96.93;;
1993;SDS011;998;49.906;10.908;2023-07-02T13:21:11;108.10;;;100.60;;
1993;SDS011;998;49.906;10.908;2023-07-02T13:23:39;92.60;;;86.30;;
1993;SDS011;998;49.906;10.908;2023-07-02T13:26:06;117.23;;;109.17;;
1993;SDS011;998;49.906;10.908;2023-07-02T13:28:35;91.77;;;85.60;;
1993;SDS011;998;49.906;10.908;2023-07-02T13:31:02;101.07;;;94.17;;
1993;SDS011;998;49.906;10.908;2023-07-02T13:33:30;90.63;;;84.80;;
1993;SDS011;998;49.906;10.908;2023-07-02T13:35:57;86.13;;;80.10;;
1993;SDS011;998;49.906;10.908;2023-07-02T13:38:25;84.57;;;79.23;;
1993;SDS011;998;49.906;10.908;2023-07-02T13:40:52;105.47;;;99.10;;
1993;SDS011;998;49.906;10.908;2023-07-02T13:43:20;78.57;;;73.57;;
1993;SDS011;998;49.906;10.908;2023-07-02T13:45:49;96.13;;;89.83;;
1993;SDS011;998;49.906;10.908;2023-07-02T13:48:16;79.77;;;74.57;;
1993;SDS011;998;49.906;10.908;2023-07-02T13:50:43;93.93;;;88.00;;
1993;SDS011;998;49.906;10.908;2023-07-02T13:53:10;109.00;;;102.40;;
1993;SDS011;998;49.906;10.908;2023-07-02T13:55:38;102.90;;;96.30;;
1993;SDS011;998;49.906;10.908;2023-07-02T13:58:05;101.53;;;95.30;;
1993;SDS011;998;49.906;10.908;2023-07-02T14:00:34;126.23;;;117.63;;
1993;SDS011;998;49.906;10.908;2023-07-02T14:03:01;106.50;;;99.57;;
1993;SDS011;998;49.906;10.908;2023-07-02T14:05:29;124.57;;;116.13;;
1993;SDS011;998;49.906;10.908;2023-07-02T14:07:57;131.57;;;123.23;;
1993;SDS011;998;49.906;10.908;2023-07-02T14:10:24;131.13;;;122.73;;
1993;SDS011;998;49.906;10.908;2023-07-02T14:12:53;115.33;;;107.70;;
1993;SDS011;998;49.906;10.908;2023-07-02T14:15:20;129.30;;;120.97;;
1993;SDS011;998;49.906;10.908;2023-07-02T14:17:50;118.10;;;110.27;;
1993;SDS011;998;49.906;10.908;2023-07-02T14:20:17;114.40;;;106.80;;
1993;SDS011;998;49.906;10.908;2023-07-02T14:22:44;104.20;;;97.33;;
1993;SDS011;998;49.906;10.908;2023-07-02T14:25:12;104.83;;;97.57;;
1993;SDS011;998;49.906;10.908;2023-07-02T14:27:39;99.30;;;92.57;;
1993;SDS011;998;49.906;10.908;2023-07-02T14:30:08;102.60;;;95.60;;
1993;SDS011;998;49.906;10.908;2023-07-02T14:32:36;100.00;;;93.60;;
1993;SDS011;998;49.906;10.908;2023-07-02T14:35:06;97.20;;;90.67;;
1993;SDS011;998;49.906;10.908;2023-07-02T14:37:34;99.70;;;93.00;;
1993;SDS011;998;49.906;10.908;2023-07-02T14:40:01;103.23;;;96.23;;
1993;SDS011;998;49.906;10.908;2023-07-02T14:42:29;105.57;;;98.33;;
1993;SDS011;998;49.906;10.908;2023-07-02T14:44:56;105.73;;;98.73;;
1993;SDS011;998;49.906;10.908;2023-07-02T14:47:23;113.37;;;105.73;;
1993;SDS011;998;49.906;10.908;2023-07-02T14:49:50;115.07;;;107.57;;